sensor_id;sensor_type;location;lat;lon;timestamp;temperature;humidity
21019;DHT22;10667;51.056;3.732;2022-07-04T00:00:04;17.70;99.90
21019;DHT22;10667;51.056;3.732;2022-07-04T00:02:30;17.50;99.90
21019;DHT22;10667;51.056;3.732;2022-07-04T00:04:56;17.50;99.90
21019;DHT22;10667;51.056;3.732;2022-07-04T00:07:22;17.50;99.90
21019;DHT22;10667;51.056;3.732;2022-07-04T00:09:47;17.60;99.90
21019;DHT22;10667;51.056;3.732;2022-07-04T00:12:13;17.60;99.90
21019;DHT22;10667;51.056;3.732;2022-07-04T00:14:39;17.70;99.90
21019;DHT22;10667;51.056;3.732;2022-07-04T00:17:05;17.70;99.90
21019;DHT22;10667;51.056;3.732;2022-07-04T00:19:31;17.70;99.90
21019;DHT22;10667;51.056;3.732;2022-07-04T00:21:57;17.70;99.90
21019;DHT22;10667;51.056;3.732;2022-07-04T00:24:22;17.80;99.90
21019;DHT22;10667;51.056;3.732;2022-07-04T00:26:48;17.80;99.90
21019;DHT22;10667;51.056;3.732;2022-07-04T00:29:14;17.80;99.90
21019;DHT22;10667;51.056;3.732;2022-07-04T00:31:40;17.70;99.90
21019;DHT22;10667;51.056;3.732;2022-07-04T00:34:06;17.60;99.90
21019;DHT22;10667;51.056;3.732;2022-07-04T00:36:32;17.40;99.90
21019;DHT22;10667;51.056;3.732;2022-07-04T00:38:57;17.20;99.90
21019;DHT22;10667;51.056;3.732;2022-07-04T00:41:23;17.00;99.90
21019;DHT22;10667;51.056;3.732;2022-07-04T00:44:04;17.00;99.90
21019;DHT22;10667;51.056;3.732;2022-07-04T00:46:30;17.10;99.90
21019;DHT22;10667;51.056;3.732;2022-07-04T00:48:56;17.10;99.90
21019;DHT22;10667;51.056;3.732;2022-07-04T00:51:23;17.10;99.90
21019;DHT22;10667;51.056;3.732;2022-07-04T00:53:50;17.20;99.90
21019;DHT22;10667;51.056;3.732;2022-07-04T00:56:16;16.90;99.90
21019;DHT22;10667;51.056;3.732;2022-07-04T00:58:42;16.80;99.90
21019;DHT22;10667;51.056;3.732;2022-07-04T01:01:07;16.80;99.90
21019;DHT22;10667;51.056;3.732;2022-07-04T01:03:33;16.80;99.90
21019;DHT22;10667;51.056;3.732;2022-07-04T01:06:00;16.60;99.90
21019;DHT22;10667;51.056;3.732;2022-07-04T01:08:26;16.60;99.90
21019;DHT22;10667;51.056;3.732;2022-07-04T01:10:52;16.50;99.90
21019;DHT22;10667;51.056;3.732;2022-07-04T01:13:22;16.60;99.90
21019;DHT22;10667;51.056;3.732;2022-07-04T01:15:48;16.70;99.90
21019;DHT22;10667;51.056;3.732;2022-07-04T01:18:14;16.60;99.90
21019;DHT22;10667;51.056;3.732;2022-07-04T01:20:40;16.30;99.90
21019;DHT22;10667;51.056;3.732;2022-07-04T01:23:06;16.20;99.90
21019;DHT22;10667;51.056;3.732;2022-07-04T01:25:32;16.20;99.90
21019;DHT22;10667;51.056;3.732;2022-07-04T01:28:02;16.30;99.90
21019;DHT22;10667;51.056;3.732;2022-07-04T01:30:29;16.10;99.90
21019;DHT22;10667;51.056;3.732;2022-07-04T01:32:55;16.00;99.90
21019;DHT22;10667;51.056;3.732;2022-07-04T01:35:22;16.20;99.90
21019;DHT22;10667;51.056;3.732;2022-07-04T01:37:48;16.30;99.90
21019;DHT22;10667;51.056;3.732;2022-07-04T01:40:14;16.30;99.90
21019;DHT22;10667;51.056;3.732;2022-07-04T01:42:41;16.20;99.90
21019;DHT22;10667;51.056;3.732;2022-07-04T01:45:08;16.10;99.90
21019;DHT22;10667;51.056;3.732;2022-07-04T01:47:34;16.30;99.90
21019;DHT22;10667;51.056;3.732;2022-07-04T01:50:00;16.30;99.90
21019;DHT22;10667;51.056;3.732;2022-07-04T01:52:26;16.30;99.90
21019;DHT22;10667;51.056;3.732;2022-07-04T01:54:52;16.10;99.90
21019;DHT22;10667;51.056;3.732;2022-07-04T01:57:18;16.20;99.90
21019;DHT22;10667;51.056;3.732;2022-07-04T01:59:43;16.20;99.90
21019;DHT22;10667;51.056;3.732;2022-07-04T02:02:28;16.20;99.90
21019;DHT22;10667;51.056;3.732;2022-07-04T02:04:54;16.30;99.90
21019;DHT22;10667;51.056;3.732;2022-07-04T02:07:20;16.30;99.90
21019;DHT22;10667;51.056;3.732;2022-07-04T02:09:46;16.30;99.90
21019;DHT22;10667;51.056;3.732;2022-07-04T02:12:12;16.00;99.90
21019;DHT22;10667;51.056;3.732;2022-07-04T02:14:56;15.80;99.90
21019;DHT22;10667;51.056;3.732;2022-07-04T02:17:22;15.80;99.90
21019;DHT22;10667;51.056;3.732;2022-07-04T02:19:48;16.00;99.90
21019;DHT22;10667;51.056;3.732;2022-07-04T02:22:14;15.90;99.90
21019;DHT22;10667;51.056;3.732;2022-07-04T02:24:40;15.90;99.90
21019;DHT22;10667;51.056;3.732;2022-07-04T02:27:06;16.00;99.90
21019;DHT22;10667;51.056;3.732;2022-07-04T02:29:32;16.20;99.90
21019;DHT22;10667;51.056;3.732;2022-07-04T02:31:58;16.20;99.90
21019;DHT22;10667;51.056;3.732;2022-07-04T02:34:24;16.20;99.90
21019;DHT22;10667;51.056;3.732;2022-07-04T02:36:49;16.30;99.90
21019;DHT22;10667;51.056;3.732;2022-07-04T02:39:15;16.20;99.90
21019;DHT22;10667;51.056;3.732;2022-07-04T02:41:41;16.20;99.90
21019;DHT22;10667;51.056;3.732;2022-07-04T02:44:07;16.10;99.90
21019;DHT22;10667;51.056;3.732;2022-07-04T02:46:33;15.90;99.90
21019;DHT22;10667;51.056;3.732;2022-07-04T02:49:02;15.90;99.90
21019;DHT22;10667;51.056;3.732;2022-07-04T02:51:28;16.00;99.90
21019;DHT22;10667;51.056;3.732;2022-07-04T02:53:54;16.00;99.90
21019;DHT22;10667;51.056;3.732;2022-07-04T02:56:19;16.10;99.90
21019;DHT22;10667;51.056;3.732;2022-07-04T02:58:45;16.20;99.90
21019;DHT22;10667;51.056;3.732;2022-07-04T03:01:11;16.20;99.90
21019;DHT22;10667;51.056;3.732;2022-07-04T03:03:38;16.20;99.90
21019;DHT22;10667;51.056;3.732;2022-07-04T03:06:06;16.20;99.90
21019;DHT22;10667;51.056;3.732;2022-07-04T03:08:32;16.00;99.90
21019;DHT22;10667;51.056;3.732;2022-07-04T03:10:57;15.80;99.90
21019;DHT22;10667;51.056;3.732;2022-07-04T03:13:23;15.50;99.90
21019;DHT22;10667;51.056;3.732;2022-07-04T03:15:50;15.50;99.90
21019;DHT22;10667;51.056;3.732;2022-07-04T03:18:16;15.70;99.90
21019;DHT22;10667;51.056;3.732;2022-07-04T03:20:42;15.90;99.90
21019;DHT22;10667;51.056;3.732;2022-07-04T03:23:08;15.80;99.90
21019;DHT22;10667;51.056;3.732;2022-07-04T03:25:34;15.80;99.90
21019;DHT22;10667;51.056;3.732;2022-07-04T03:28:00;15.70;99.90
21019;DHT22;10667;51.056;3.732;2022-07-04T03:30:25;15.90;99.90
21019;DHT22;10667;51.056;3.732;2022-07-04T03:32:51;15.90;99.90
21019;DHT22;10667;51.056;3.732;2022-07-04T03:35:16;15.70;99.90
21019;DHT22;10667;51.056;3.732;2022-07-04T03:37:42;16.00;99.90
21019;DHT22;10667;51.056;3.732;2022-07-04T03:40:08;15.90;99.90
21019;DHT22;10667;51.056;3.732;2022-07-04T03:42:34;16.00;99.90
21019;DHT22;10667;51.056;3.732;2022-07-04T03:45:00;16.00;99.90
21019;DHT22;10667;51.056;3.732;2022-07-04T03:47:26;16.10;99.90
21019;DHT22;10667;51.056;3.732;2022-07-04T03:49:51;16.00;99.90
21019;DHT22;10667;51.056;3.732;2022-07-04T03:52:17;16.00;99.90
21019;DHT22;10667;51.056;3.732;2022-07-04T03:54:42;16.10;99.90
21019;DHT22;10667;51.056;3.732;2022-07-04T03:57:08;16.20;99.90
21019;DHT22;10667;51.056;3.732;2022-07-04T03:59:34;16.10;99.90
21019;DHT22;10667;51.056;3.732;2022-07-04T04:01:59;16.20;99.90
21019;DHT22;10667;51.056;3.732;2022-07-04T04:04:25;16.20;99.90
21019;DHT22;10667;51.056;3.732;2022-07-04T04:07:10;16.20;99.90
21019;DHT22;10667;51.056;3.732;2022-07-04T04:09:36;16.20;99.90
21019;DHT22;10667;51.056;3.732;2022-07-04T04:12:01;16.10;99.90
21019;DHT22;10667;51.056;3.732;2022-07-04T04:14:27;16.20;99.90
21019;DHT22;10667;51.056;3.732;2022-07-04T04:16:53;16.00;99.90
21019;DHT22;10667;51.056;3.732;2022-07-04T04:19:19;16.00;99.90
21019;DHT22;10667;51.056;3.732;2022-07-04T04:21:45;16.20;99.90
21019;DHT22;10667;51.056;3.732;2022-07-04T04:24:10;16.10;99.90
21019;DHT22;10667;51.056;3.732;2022-07-04T04:26:36;16.10;99.90
21019;DHT22;10667;51.056;3.732;2022-07-04T04:29:02;16.20;99.90
21019;DHT22;10667;51.056;3.732;2022-07-04T04:31:28;16.30;99.90
21019;DHT22;10667;51.056;3.732;2022-07-04T04:33:54;16.30;99.90
21019;DHT22;10667;51.056;3.732;2022-07-04T04:36:19;16.20;99.90
21019;DHT22;10667;51.056;3.732;2022-07-04T04:38:45;15.90;99.90
21019;DHT22;10667;51.056;3.732;2022-07-04T04:41:11;15.70;99.90
21019;DHT22;10667;51.056;3.732;2022-07-04T04:43:36;15.90;99.90
21019;DHT22;10667;51.056;3.732;2022-07-04T04:46:02;16.10;99.90
21019;DHT22;10667;51.056;3.732;2022-07-04T04:48:28;16.00;99.90
21019;DHT22;10667;51.056;3.732;2022-07-04T04:50:53;15.80;99.90
21019;DHT22;10667;51.056;3.732;2022-07-04T04:53:19;15.90;99.90
21019;DHT22;10667;51.056;3.732;2022-07-04T04:55:48;16.20;99.90
21019;DHT22;10667;51.056;3.732;2022-07-04T04:58:13;16.20;99.90
21019;DHT22;10667;51.056;3.732;2022-07-04T05:00:39;16.20;99.90
21019;DHT22;10667;51.056;3.732;2022-07-04T05:03:05;16.30;99.90
21019;DHT22;10667;51.056;3.732;2022-07-04T05:05:30;16.50;99.90
21019;DHT22;10667;51.056;3.732;2022-07-04T05:07:56;16.30;99.90
21019;DHT22;10667;51.056;3.732;2022-07-04T05:10:22;16.40;99.90
21019;DHT22;10667;51.056;3.732;2022-07-04T05:12:47;16.40;99.90
21019;DHT22;10667;51.056;3.732;2022-07-04T05:15:13;16.30;99.90
21019;DHT22;10667;51.056;3.732;2022-07-04T05:17:39;16.40;99.90
21019;DHT22;10667;51.056;3.732;2022-07-04T05:20:05;16.50;99.90
21019;DHT22;10667;51.056;3.732;2022-07-04T05:22:31;16.60;99.90
21019;DHT22;10667;51.056;3.732;2022-07-04T05:24:56;16.70;99.90
21019;DHT22;10667;51.056;3.732;2022-07-04T05:27:22;16.60;99.90
21019;DHT22;10667;51.056;3.732;2022-07-04T05:29:48;16.60;99.90
21019;DHT22;10667;51.056;3.732;2022-07-04T05:32:13;16.50;99.90
21019;DHT22;10667;51.056;3.732;2022-07-04T05:34:39;16.20;99.90
21019;DHT22;10667;51.056;3.732;2022-07-04T05:37:05;16.10;99.90
21019;DHT22;10667;51.056;3.732;2022-07-04T05:39:30;16.20;99.90
21019;DHT22;10667;51.056;3.732;2022-07-04T05:41:56;16.20;99.90
21019;DHT22;10667;51.056;3.732;2022-07-04T05:44:22;16.20;99.90
21019;DHT22;10667;51.056;3.732;2022-07-04T05:46:48;16.30;99.90
21019;DHT22;10667;51.056;3.732;2022-07-04T05:49:14;16.50;99.90
21019;DHT22;10667;51.056;3.732;2022-07-04T05:51:39;16.50;99.90
21019;DHT22;10667;51.056;3.732;2022-07-04T05:54:05;16.60;99.90
21019;DHT22;10667;51.056;3.732;2022-07-04T05:56:31;16.50;99.90
21019;DHT22;10667;51.056;3.732;2022-07-04T05:58:56;16.50;99.90
21019;DHT22;10667;51.056;3.732;2022-07-04T06:01:22;16.60;99.90
21019;DHT22;10667;51.056;3.732;2022-07-04T06:03:48;16.60;99.90
21019;DHT22;10667;51.056;3.732;2022-07-04T06:06:14;16.70;99.90
21019;DHT22;10667;51.056;3.732;2022-07-04T06:08:41;16.70;99.90
21019;DHT22;10667;51.056;3.732;2022-07-04T06:11:07;16.80;99.90
21019;DHT22;10667;51.056;3.732;2022-07-04T06:13:32;17.00;99.90
21019;DHT22;10667;51.056;3.732;2022-07-04T06:15:58;17.10;99.90
21019;DHT22;10667;51.056;3.732;2022-07-04T06:18:23;16.90;99.90
21019;DHT22;10667;51.056;3.732;2022-07-04T06:20:49;17.10;99.90
21019;DHT22;10667;51.056;3.732;2022-07-04T06:23:15;17.00;99.90
21019;DHT22;10667;51.056;3.732;2022-07-04T06:25:41;16.70;99.90
21019;DHT22;10667;51.056;3.732;2022-07-04T06:28:07;16.70;99.90
21019;DHT22;10667;51.056;3.732;2022-07-04T06:30:33;16.70;99.90
21019;DHT22;10667;51.056;3.732;2022-07-04T06:32:58;16.60;99.90
21019;DHT22;10667;51.056;3.732;2022-07-04T06:35:27;16.90;99.90
21019;DHT22;10667;51.056;3.732;2022-07-04T06:38:13;16.90;99.90
21019;DHT22;10667;51.056;3.732;2022-07-04T06:40:40;17.00;99.90
21019;DHT22;10667;51.056;3.732;2022-07-04T06:43:05;17.10;99.90
21019;DHT22;10667;51.056;3.732;2022-07-04T06:45:32;17.20;99.90
21019;DHT22;10667;51.056;3.732;2022-07-04T06:48:03;17.20;99.90
21019;DHT22;10667;51.056;3.732;2022-07-04T06:50:29;17.10;99.90
21019;DHT22;10667;51.056;3.732;2022-07-04T06:53:02;17.40;99.90
21019;DHT22;10667;51.056;3.732;2022-07-04T06:55:27;17.50;99.90
21019;DHT22;10667;51.056;3.732;2022-07-04T06:57:53;17.50;99.90
21019;DHT22;10667;51.056;3.732;2022-07-04T07:00:19;17.50;99.90
21019;DHT22;10667;51.056;3.732;2022-07-04T07:02:45;17.60;99.90
21019;DHT22;10667;51.056;3.732;2022-07-04T07:05:10;17.60;99.90
21019;DHT22;10667;51.056;3.732;2022-07-04T07:07:36;17.70;99.90
21019;DHT22;10667;51.056;3.732;2022-07-04T07:10:02;18.00;99.90
21019;DHT22;10667;51.056;3.732;2022-07-04T07:12:29;18.20;99.90
21019;DHT22;10667;51.056;3.732;2022-07-04T07:14:54;18.20;99.90
21019;DHT22;10667;51.056;3.732;2022-07-04T07:17:20;18.10;99.90
21019;DHT22;10667;51.056;3.732;2022-07-04T07:19:46;17.90;99.90
21019;DHT22;10667;51.056;3.732;2022-07-04T07:22:13;17.90;99.90
21019;DHT22;10667;51.056;3.732;2022-07-04T07:24:39;17.90;99.90
21019;DHT22;10667;51.056;3.732;2022-07-04T07:27:05;18.00;99.90
21019;DHT22;10667;51.056;3.732;2022-07-04T07:29:31;18.10;99.90
21019;DHT22;10667;51.056;3.732;2022-07-04T07:31:57;18.00;99.90
21019;DHT22;10667;51.056;3.732;2022-07-04T07:34:23;18.30;99.90
21019;DHT22;10667;51.056;3.732;2022-07-04T07:36:49;18.40;99.90
21019;DHT22;10667;51.056;3.732;2022-07-04T07:39:15;18.40;99.90
21019;DHT22;10667;51.056;3.732;2022-07-04T07:41:41;18.30;99.90
21019;DHT22;10667;51.056;3.732;2022-07-04T07:44:07;18.50;99.90
21019;DHT22;10667;51.056;3.732;2022-07-04T07:46:33;18.40;99.90
21019;DHT22;10667;51.056;3.732;2022-07-04T07:48:59;18.40;99.90
21019;DHT22;10667;51.056;3.732;2022-07-04T07:51:24;18.60;99.90
21019;DHT22;10667;51.056;3.732;2022-07-04T07:53:50;18.70;99.90
21019;DHT22;10667;51.056;3.732;2022-07-04T07:56:16;18.90;99.90
21019;DHT22;10667;51.056;3.732;2022-07-04T07:58:42;19.10;99.90
21019;DHT22;10667;51.056;3.732;2022-07-04T08:01:07;19.30;99.90
21019;DHT22;10667;51.056;3.732;2022-07-04T08:03:33;19.40;99.90
21019;DHT22;10667;51.056;3.732;2022-07-04T08:06:17;19.60;99.90
21019;DHT22;10667;51.056;3.732;2022-07-04T08:08:43;19.60;99.90
21019;DHT22;10667;51.056;3.732;2022-07-04T08:11:12;19.60;99.90
21019;DHT22;10667;51.056;3.732;2022-07-04T08:13:39;19.60;99.90
21019;DHT22;10667;51.056;3.732;2022-07-04T08:16:05;19.80;99.90
21019;DHT22;10667;51.056;3.732;2022-07-04T08:18:32;19.70;99.90
21019;DHT22;10667;51.056;3.732;2022-07-04T08:20:58;19.80;99.90
21019;DHT22;10667;51.056;3.732;2022-07-04T08:23:24;19.90;99.90
21019;DHT22;10667;51.056;3.732;2022-07-04T08:25:50;20.00;99.90
21019;DHT22;10667;51.056;3.732;2022-07-04T08:28:16;20.00;99.90
21019;DHT22;10667;51.056;3.732;2022-07-04T08:30:41;20.20;99.90
21019;DHT22;10667;51.056;3.732;2022-07-04T08:33:07;20.30;99.90
21019;DHT22;10667;51.056;3.732;2022-07-04T08:35:33;20.50;99.90
21019;DHT22;10667;51.056;3.732;2022-07-04T08:37:59;20.80;99.90
21019;DHT22;10667;51.056;3.732;2022-07-04T08:40:27;20.80;99.90
21019;DHT22;10667;51.056;3.732;2022-07-04T08:42:53;20.80;99.90
21019;DHT22;10667;51.056;3.732;2022-07-04T08:45:29;20.80;99.90
21019;DHT22;10667;51.056;3.732;2022-07-04T08:48:06;20.90;99.90
21019;DHT22;10667;51.056;3.732;2022-07-04T08:50:56;21.10;99.90
21019;DHT22;10667;51.056;3.732;2022-07-04T08:53:28;21.20;99.90
21019;DHT22;10667;51.056;3.732;2022-07-04T08:55:56;21.20;99.90
21019;DHT22;10667;51.056;3.732;2022-07-04T08:58:42;21.40;99.90
21019;DHT22;10667;51.056;3.732;2022-07-04T09:01:09;21.50;99.90
21019;DHT22;10667;51.056;3.732;2022-07-04T09:03:42;21.70;99.90
21019;DHT22;10667;51.056;3.732;2022-07-04T09:06:09;21.90;99.90
21019;DHT22;10667;51.056;3.732;2022-07-04T09:08:36;22.20;99.90
21019;DHT22;10667;51.056;3.732;2022-07-04T09:11:03;22.30;99.90
21019;DHT22;10667;51.056;3.732;2022-07-04T09:13:30;22.60;99.90
21019;DHT22;10667;51.056;3.732;2022-07-04T09:15:55;22.60;99.90
21019;DHT22;10667;51.056;3.732;2022-07-04T09:18:24;22.30;99.90
21019;DHT22;10667;51.056;3.732;2022-07-04T09:20:52;22.20;99.90
21019;DHT22;10667;51.056;3.732;2022-07-04T09:23:30;22.30;99.90
21019;DHT22;10667;51.056;3.732;2022-07-04T09:26:17;22.50;99.90
21019;DHT22;10667;51.056;3.732;2022-07-04T09:28:55;22.70;99.90
21019;DHT22;10667;51.056;3.732;2022-07-04T09:31:28;23.30;99.90
21019;DHT22;10667;51.056;3.732;2022-07-04T09:33:55;23.50;99.90
21019;DHT22;10667;51.056;3.732;2022-07-04T09:36:25;23.80;99.90
21019;DHT22;10667;51.056;3.732;2022-07-04T09:39:18;23.80;99.90
21019;DHT22;10667;51.056;3.732;2022-07-04T09:44:19;23.70;99.90
21019;DHT22;10667;51.056;3.732;2022-07-04T09:46:45;23.70;99.90
21019;DHT22;10667;51.056;3.732;2022-07-04T09:49:11;23.70;99.90
21019;DHT22;10667;51.056;3.732;2022-07-04T09:56:48;23.90;99.90
21019;DHT22;10667;51.056;3.732;2022-07-04T09:59:14;23.60;99.90
21019;DHT22;10667;51.056;3.732;2022-07-04T10:01:41;23.40;99.90
21019;DHT22;10667;51.056;3.732;2022-07-04T10:04:07;23.20;99.90
21019;DHT22;10667;51.056;3.732;2022-07-04T10:06:37;23.40;99.90
21019;DHT22;10667;51.056;3.732;2022-07-04T10:09:14;23.40;99.90
21019;DHT22;10667;51.056;3.732;2022-07-04T10:11:42;23.60;99.90
21019;DHT22;10667;51.056;3.732;2022-07-04T10:14:10;23.80;99.90
21019;DHT22;10667;51.056;3.732;2022-07-04T10:16:38;24.00;99.90
21019;DHT22;10667;51.056;3.732;2022-07-04T10:19:04;24.10;99.90
21019;DHT22;10667;51.056;3.732;2022-07-04T10:21:30;23.90;99.90
21019;DHT22;10667;51.056;3.732;2022-07-04T10:23:57;23.90;99.90
21019;DHT22;10667;51.056;3.732;2022-07-04T10:26:23;23.80;99.90
21019;DHT22;10667;51.056;3.732;2022-07-04T10:28:50;23.50;99.90
21019;DHT22;10667;51.056;3.732;2022-07-04T10:31:19;23.40;99.90
21019;DHT22;10667;51.056;3.732;2022-07-04T10:33:46;23.80;99.90
21019;DHT22;10667;51.056;3.732;2022-07-04T10:36:17;24.10;99.90
21019;DHT22;10667;51.056;3.732;2022-07-04T10:38:59;24.60;99.90
21019;DHT22;10667;51.056;3.732;2022-07-04T10:41:28;24.80;99.90
21019;DHT22;10667;51.056;3.732;2022-07-04T10:44:01;25.00;99.90
21019;DHT22;10667;51.056;3.732;2022-07-04T10:49:17;25.50;99.90
21019;DHT22;10667;51.056;3.732;2022-07-04T10:54:33;25.00;99.90
21019;DHT22;10667;51.056;3.732;2022-07-04T10:57:23;25.80;99.90
21019;DHT22;10667;51.056;3.732;2022-07-04T11:02:29;26.00;99.90
21019;DHT22;10667;51.056;3.732;2022-07-04T11:07:21;25.90;99.90
21019;DHT22;10667;51.056;3.732;2022-07-04T11:17:59;26.10;99.90
21019;DHT22;10667;51.056;3.732;2022-07-04T11:20:27;26.20;99.90
21019;DHT22;10667;51.056;3.732;2022-07-04T11:23:06;26.10;99.90
21019;DHT22;10667;51.056;3.732;2022-07-04T11:25:32;26.50;99.90
21019;DHT22;10667;51.056;3.732;2022-07-04T11:30:53;26.40;99.10
21019;DHT22;10667;51.056;3.732;2022-07-04T11:33:24;26.40;99.00
21019;DHT22;10667;51.056;3.732;2022-07-04T11:41:32;27.50;98.40
21019;DHT22;10667;51.056;3.732;2022-07-04T11:44:18;27.90;96.70
21019;DHT22;10667;51.056;3.732;2022-07-04T11:47:12;27.40;95.80
21019;DHT22;10667;51.056;3.732;2022-07-04T11:49:54;27.50;96.90
21019;DHT22;10667;51.056;3.732;2022-07-04T11:52:25;28.50;94.40
21019;DHT22;10667;51.056;3.732;2022-07-04T11:54:52;30.00;92.50
21019;DHT22;10667;51.056;3.732;2022-07-04T11:57:27;31.10;77.70
21019;DHT22;10667;51.056;3.732;2022-07-04T12:02:27;31.90;68.10
21019;DHT22;10667;51.056;3.732;2022-07-04T12:04:54;31.30;68.40
21019;DHT22;10667;51.056;3.732;2022-07-04T12:07:24;30.30;69.20
21019;DHT22;10667;51.056;3.732;2022-07-04T12:09:51;29.50;72.60
21019;DHT22;10667;51.056;3.732;2022-07-04T12:12:18;29.90;74.40
21019;DHT22;10667;51.056;3.732;2022-07-04T12:15:04;31.10;72.90
21019;DHT22;10667;51.056;3.732;2022-07-04T12:17:39;32.10;66.70
21019;DHT22;10667;51.056;3.732;2022-07-04T12:20:12;33.00;65.30
21019;DHT22;10667;51.056;3.732;2022-07-04T12:22:41;32.10;63.60
21019;DHT22;10667;51.056;3.732;2022-07-04T12:25:18;31.40;64.80
21019;DHT22;10667;51.056;3.732;2022-07-04T12:28:01;31.40;65.00
21019;DHT22;10667;51.056;3.732;2022-07-04T12:30:35;32.10;61.50
21019;DHT22;10667;51.056;3.732;2022-07-04T12:33:08;31.90;60.60
21019;DHT22;10667;51.056;3.732;2022-07-04T12:35:47;32.60;62.00
21019;DHT22;10667;51.056;3.732;2022-07-04T12:38:20;34.20;58.50
21019;DHT22;10667;51.056;3.732;2022-07-04T12:41:02;35.10;54.80
21019;DHT22;10667;51.056;3.732;2022-07-04T12:46:12;36.40;50.60
21019;DHT22;10667;51.056;3.732;2022-07-04T12:48:39;37.70;46.70
21019;DHT22;10667;51.056;3.732;2022-07-04T12:51:23;38.50;45.20
21019;DHT22;10667;51.056;3.732;2022-07-04T12:53:54;39.00;43.40
21019;DHT22;10667;51.056;3.732;2022-07-04T12:56:33;40.00;39.90
21019;DHT22;10667;51.056;3.732;2022-07-04T12:59:02;40.10;38.70
21019;DHT22;10667;51.056;3.732;2022-07-04T13:01:28;40.80;37.20
21019;DHT22;10667;51.056;3.732;2022-07-04T13:03:54;40.60;36.30
21019;DHT22;10667;51.056;3.732;2022-07-04T13:06:20;40.30;34.80
21019;DHT22;10667;51.056;3.732;2022-07-04T13:08:46;40.90;35.50
21019;DHT22;10667;51.056;3.732;2022-07-04T13:11:12;40.70;34.80
21019;DHT22;10667;51.056;3.732;2022-07-04T13:13:56;41.00;34.70
21019;DHT22;10667;51.056;3.732;2022-07-04T13:16:22;41.60;34.50
21019;DHT22;10667;51.056;3.732;2022-07-04T13:18:47;41.50;36.60
21019;DHT22;10667;51.056;3.732;2022-07-04T13:21:13;42.10;33.20
21019;DHT22;10667;51.056;3.732;2022-07-04T13:23:39;42.50;31.50
21019;DHT22;10667;51.056;3.732;2022-07-04T13:26:04;42.90;30.60
21019;DHT22;10667;51.056;3.732;2022-07-04T13:28:30;43.30;29.30
21019;DHT22;10667;51.056;3.732;2022-07-04T13:30:56;42.90;29.60
21019;DHT22;10667;51.056;3.732;2022-07-04T13:33:22;42.20;29.60
21019;DHT22;10667;51.056;3.732;2022-07-04T13:35:47;41.90;30.30
21019;DHT22;10667;51.056;3.732;2022-07-04T13:38:13;41.90;31.40
21019;DHT22;10667;51.056;3.732;2022-07-04T13:40:42;41.60;31.40
21019;DHT22;10667;51.056;3.732;2022-07-04T13:43:08;42.10;31.30
21019;DHT22;10667;51.056;3.732;2022-07-04T13:45:38;42.30;29.30
21019;DHT22;10667;51.056;3.732;2022-07-04T13:48:05;42.10;29.80
21019;DHT22;10667;51.056;3.732;2022-07-04T13:50:32;40.00;30.20
21019;DHT22;10667;51.056;3.732;2022-07-04T13:52:57;38.80;33.00
21019;DHT22;10667;51.056;3.732;2022-07-04T13:55:23;39.20;33.60
21019;DHT22;10667;51.056;3.732;2022-07-04T13:57:49;39.50;32.20
21019;DHT22;10667;51.056;3.732;2022-07-04T14:00:15;38.60;33.20
21019;DHT22;10667;51.056;3.732;2022-07-04T14:02:41;38.20;33.50
21019;DHT22;10667;51.056;3.732;2022-07-04T14:05:07;37.30;34.80
21019;DHT22;10667;51.056;3.732;2022-07-04T14:07:33;35.90;37.80
21019;DHT22;10667;51.056;3.732;2022-07-04T14:10:02;34.40;39.60
21019;DHT22;10667;51.056;3.732;2022-07-04T14:12:27;33.70;41.30
21019;DHT22;10667;51.056;3.732;2022-07-04T14:14:53;32.90;43.30
21019;DHT22;10667;51.056;3.732;2022-07-04T14:17:19;33.40;43.60
21019;DHT22;10667;51.056;3.732;2022-07-04T14:19:44;34.90;42.10
21019;DHT22;10667;51.056;3.732;2022-07-04T14:22:10;36.30;40.90
21019;DHT22;10667;51.056;3.732;2022-07-04T14:24:36;37.40;40.20
21019;DHT22;10667;51.056;3.732;2022-07-04T14:27:01;38.10;36.10
21019;DHT22;10667;51.056;3.732;2022-07-04T14:29:27;39.60;35.90
21019;DHT22;10667;51.056;3.732;2022-07-04T14:31:53;40.30;33.90
21019;DHT22;10667;51.056;3.732;2022-07-04T14:34:19;40.70;32.20
21019;DHT22;10667;51.056;3.732;2022-07-04T14:36:45;39.30;33.60
21019;DHT22;10667;51.056;3.732;2022-07-04T14:39:10;38.80;34.50
21019;DHT22;10667;51.056;3.732;2022-07-04T14:41:36;38.70;34.70
21019;DHT22;10667;51.056;3.732;2022-07-04T14:44:02;39.40;34.90
21019;DHT22;10667;51.056;3.732;2022-07-04T14:46:28;39.80;34.60
21019;DHT22;10667;51.056;3.732;2022-07-04T14:48:56;38.80;34.00
21019;DHT22;10667;51.056;3.732;2022-07-04T14:51:21;37.60;35.30
21019;DHT22;10667;51.056;3.732;2022-07-04T14:53:47;36.20;37.70
21019;DHT22;10667;51.056;3.732;2022-07-04T14:56:13;35.20;39.30
21019;DHT22;10667;51.056;3.732;2022-07-04T14:58:38;35.10;40.70
21019;DHT22;10667;51.056;3.732;2022-07-04T15:01:04;36.20;40.60
21019;DHT22;10667;51.056;3.732;2022-07-04T15:03:30;36.70;39.20
21019;DHT22;10667;51.056;3.732;2022-07-04T15:05:55;36.50;40.20
21019;DHT22;10667;51.056;3.732;2022-07-04T15:08:21;35.90;41.60
21019;DHT22;10667;51.056;3.732;2022-07-04T15:10:47;34.80;43.50
21019;DHT22;10667;51.056;3.732;2022-07-04T15:13:12;33.70;45.20
21019;DHT22;10667;51.056;3.732;2022-07-04T15:15:39;32.90;46.60
21019;DHT22;10667;51.056;3.732;2022-07-04T15:18:05;32.20;47.80
21019;DHT22;10667;51.056;3.732;2022-07-04T15:20:31;31.60;48.70
21019;DHT22;10667;51.056;3.732;2022-07-04T15:23:15;31.10;50.90
21019;DHT22;10667;51.056;3.732;2022-07-04T15:25:59;32.40;48.90
21019;DHT22;10667;51.056;3.732;2022-07-04T15:28:25;33.90;46.60
21019;DHT22;10667;51.056;3.732;2022-07-04T15:30:50;34.70;44.60
21019;DHT22;10667;51.056;3.732;2022-07-04T15:33:16;35.10;44.40
21019;DHT22;10667;51.056;3.732;2022-07-04T15:35:43;34.50;44.30
21019;DHT22;10667;51.056;3.732;2022-07-04T15:38:09;34.30;46.30
21019;DHT22;10667;51.056;3.732;2022-07-04T15:40:35;34.40;46.30
21019;DHT22;10667;51.056;3.732;2022-07-04T15:43:01;34.90;43.90
21019;DHT22;10667;51.056;3.732;2022-07-04T15:45:27;35.20;44.10
21019;DHT22;10667;51.056;3.732;2022-07-04T15:47:53;35.60;43.80
21019;DHT22;10667;51.056;3.732;2022-07-04T15:50:19;36.20;42.20
21019;DHT22;10667;51.056;3.732;2022-07-04T15:52:44;36.90;41.50
21019;DHT22;10667;51.056;3.732;2022-07-04T15:55:10;37.40;40.50
21019;DHT22;10667;51.056;3.732;2022-07-04T15:57:36;37.60;40.30
21019;DHT22;10667;51.056;3.732;2022-07-04T16:00:04;38.00;40.30
21019;DHT22;10667;51.056;3.732;2022-07-04T16:02:30;38.40;40.50
21019;DHT22;10667;51.056;3.732;2022-07-04T16:04:55;38.90;39.20
21019;DHT22;10667;51.056;3.732;2022-07-04T16:07:21;39.00;39.30
21019;DHT22;10667;51.056;3.732;2022-07-04T16:09:47;38.90;38.40
21019;DHT22;10667;51.056;3.732;2022-07-04T16:12:12;39.50;37.60